Station: Braidwood  

  Atmospheric Gas Attenuation - ITU Rec 676-11   ----------------- dB/100km -----------------
Date Time Temp RH % AH g/m3 Dew Point Wind Direction Speed kph Gust kph Barometer mB Rainfall Since 9am 24GHz 47GHz 76GHz 122GHz 134GHz 241GHz
02/09 19:40 12.9 74 8.34 8.4 6 11 1014.5 0 19.1 25.8 39.3 103.0 96.2 330.6
02/09 19:30 13.2 74 8.5 8.7 7 11 1014.5 0 19.4 26.0 39.8 104.3 97.9 336.8
02/09 19:20 12.9 73 8.23 8.2 6 15 1014.5 0 18.8 25.6 38.8 101.8 94.7 325.5
02/09 19:10 13.3 72 8.32 8.4 6 13 1014.6 0 19.0 25.6 39.0 102.2 95.4 328.0
02/09 19:00 13.7 71 8.41 8.5 9 17 1014.5 0 19.2 25.7 39.1 102.7 96.1 330.5
02/09 18:50 13.3 71 8.2 8.2 7 13 1014.5 0 18.8 25.4 38.5 101.0 93.9 322.5
02/09 18:40 13.2 69 7.92 7.6 4 9 1014.5 0 18.2 25.0 37.4 98.1 90.3 310.1
02/09 18:30 13.6 67 7.89 7.6 4 7 1014.4 0 18.1 24.9 37.1 97.3 89.5 307.1
02/09 18:20 14 66 7.96 7.8 6 9 1014.4 0 18.2 24.9 37.2 97.5 89.9 308.8
02/09 18:10 14.6 64 8.01 7.9 9 17 1014.3 0 18.3 24.8 37.1 97.3 89.8 308.6
02/09 18:00 14.8 62 7.85 7.6 7 13 1014.3 0 17.9 24.5 36.4 95.4 87.6 300.7
02/09 17:50 15.9 58 7.85 7.7 13 26 1014.2 0 17.9 24.2 35.9 94.1 86.4 296.6
02/09 17:40 16 59 8.04 8 11 17 1014.2 0 18.3 24.4 36.6 95.9 88.6 304.5
02/09 17:30 16 58 7.9 7.7 11 22 1014.1 0 18.0 24.2 36.1 94.5 86.9 298.4
02/09 17:20 16.9 51 7.33 6.7 20 32 1014 0 16.8 23.1 33.5 87.8 78.9 270.6
02/09 17:10 17.3 49 7.22 6.5 24 35 1013.7 0 16.5 22.8 33.0 86.2 77.2 264.6
02/09 17:00 17.7 48 7.24 6.6 26 39 1013.8 0 16.5 22.8 32.9 86.0 77.0 264.1
02/09 16:50 18 47 7.22 6.5 26 37 1013.6 0 16.5 22.7 32.7 85.5 76.5 262.3
02/09 16:40 18.4 46 7.23 6.6 26 37 1013.5 0 16.5 22.6 32.6 85.2 76.2 261.4
02/09 16:30 18.7 45 7.2 6.5 28 41 1013.3 0 16.4 22.4 32.3 84.5 75.6 259.1
02/09 16:20 18.9 45 7.29 6.7 33 44 1013.3 0 16.6 22.5 32.6 85.2 76.4 262.2
02/09 16:10 19.1 45 7.38 6.9 33 41 1013.2 0 16.8 22.6 32.8 85.8 77.3 265.2
02/09 16:00 18.7 46 7.36 6.8 24 33 1013.1 0 16.7 22.7 32.9 86.0 77.4 265.7
02/09 15:50 19.2 45 7.42 7 33 46 1013.2 0 16.8 22.6 32.9 86.1 77.7 266.5
02/09 15:40 18.9 44 7.13 6.4 32 44 1013.2 0 16.2 22.3 32.0 83.7 74.6 255.6
02/09 15:30 19.2 45 7.42 7 30 44 1013.5 0 16.8 22.7 32.9 86.1 77.7 266.6
02/09 15:20 19.8 43 7.34 6.9 26 37 1013.6 0 16.7 22.4 32.4 84.7 76.2 261.4
02/09 15:10 20 42 7.26 6.7 28 46 1013.6 0 16.5 22.2 32.0 83.8 75.1 257.5
02/09 15:00 20 41 7.08 6.4 20 35 1013.5 0 16.1 22.0 31.4 82.1 73.0 250.2
02/09 14:50 20.3 41 7.21 6.6 32 43 1013.6 0 16.4 22.1 31.7 83.0 74.2 254.5
02/09 14:40 19.1 42 6.88 5.9 35 50 1013.6 0 15.7 21.9 31.0 81.1 71.5 244.9
02/09 14:30 19.8 39 6.66 5.5 35 57 1013.1 0 15.2 21.4 30.0 78.4 68.3 233.9
02/09 14:20 20.2 41 7.17 6.5 32 43 1013.1 0 16.3 22.0 31.6 82.7 73.8 253.1
02/09 14:10 20.3 43 7.56 7.3 26 32 1013.3 0 17.1 22.6 33.0 86.3 78.2 268.7
02/09 14:00 20 43 7.43 7.1 26 39 1013.6 0 16.8 22.5 32.6 85.4 77.0 264.4
02/09 13:50 19.3 46 7.63 7.4 19 24 1013.7 0 17.3 22.9 33.6 88.0 80.1 275.0
02/09 13:40 19.6 44 7.43 7 30 46 1013.7 0 16.9 22.6 32.8 85.8 77.4 265.7
02/09 13:30 20.1 46 8 8.1 32 48 1013.8 0 18.0 23.3 34.6 90.7 83.7 287.6
02/09 13:20 19.6 46 7.76 7.7 30 39 1014 0 17.5 23.1 34.0 89.0 81.3 279.4
02/09 13:10 20.1 43 7.47 7.1 26 30 1014.1 0 16.9 22.5 32.8 85.7 77.4 265.8
02/09 13:00 19.4 43 7.17 6.5 24 37 1014.4 0 16.3 22.3 32.0 83.6 74.6 255.9
02/09 12:50 19.5 44 7.38 6.9 26 41 1014.4 0 16.7 22.6 32.7 85.5 77.0 264.2
02/09 12:40 19.6 45 7.6 7.4 30 44 1014.5 0 17.2 22.8 33.4 87.5 79.5 272.9
02/09 12:30 19.2 45 7.42 7 24 35 1014.7 0 16.8 22.7 33.0 86.2 77.8 266.9
02/09 12:20 19.9 45 7.73 7.6 26 39 1014.9 0 17.5 23.0 33.8 88.5 80.7 277.4
02/09 12:10 19.8 45 7.69 7.5 28 43 1015.1 0 17.4 22.9 33.7 88.2 80.4 276.1
02/09 12:00 19.5 44 7.38 6.9 26 43 1015.2 0 16.7 22.6 32.7 85.6 77.0 264.4
02/09 11:50 19.4 46 7.67 7.5 22 35 1015.4 0 17.4 23.0 33.8 88.5 80.6 276.7
02/09 11:40 19.2 44 7.25 6.7 22 35 1015.5 0 16.5 22.5 32.4 84.7 75.8 260.0
02/09 11:30 19.5 45 7.55 7.3 26 41 1015.5 0 17.1 22.8 33.3 87.2 79.1 271.4
02/09 11:20 19.3 46 7.63 7.4 24 35 1015.6 0 17.3 23.0 33.7 88.2 80.2 275.4
02/09 11:10 19.1 47 7.7 7.5 22 30 1015.6 0 17.4 23.2 34.0 89.1 81.2 279.0
02/09 11:00 19.3 46 7.63 7.4 24 33 1015.8 0 17.3 23.0 33.7 88.2 80.2 275.5
02/09 10:50 19 47 7.66 7.4 22 33 1015.8 0 17.4 23.1 33.9 88.8 80.9 277.8
02/09 10:40 18.6 47 7.48 7.1 17 33 1016 0 17.0 23.0 33.5 87.6 79.2 271.6
02/09 10:30 18.6 52 8.28 8.6 13 26 1016 0 18.7 24.2 36.4 95.4 88.8 305.5
02/09 10:20 18.2 54 8.39 8.7 11 20 1016 0 18.9 24.4 37.0 97.0 90.6 311.8
02/09 10:10 18.4 58 9.12 10 7 9 1016 0 20.5 25.5 39.7 104.1 99.5 343.0
02/09 10:00 17.8 56 8.5 8.9 7 13 1016 0 19.2 24.7 37.6 98.6 92.5 318.2
02/09 09:50 17.8 57 8.65 9.2 9 17 1016.2 0 19.5 24.9 38.2 100.1 94.3 324.8
02/09 09:40 17.5 60 8.94 9.7 9 17 1016.3 0 20.1 25.5 39.4 103.5 98.4 338.9
02/09 09:30 16.7 58 8.24 8.4 9 19 1016.3 0 18.7 24.6 37.1 97.3 90.5 311.2
02/09 09:20 16.6 61 8.62 9.1 11 20 1016.3 0 19.5 25.2 38.6 101.3 95.4 328.4
02/09 09:10 16.3 61 8.46 8.8 7 17 1016.3 0 19.2 25.1 38.2 100.1 93.8 322.5
02/09 09:00 15.5 63 8.33 8.5 9 20 1016.4 0 18.9 25.1 38.0 99.7 93.1 320.0
02/09 08:50 15.3 67 8.75 9.2 9 19 1016.4 0 19.8 25.8 39.8 104.4 98.7 339.8
02/09 08:40 14.8 68 8.61 9 9 19 1016.5 0 19.6 25.7 39.5 103.6 97.5 335.6
02/09 08:30 14.6 70 8.76 9.2 7 13 1016.7 0 19.9 26.0 40.2 105.5 99.8 343.4
02/09 08:20 14 71 8.56 8.8 6 13 1016.7 0 19.5 25.9 39.7 104.1 97.9 336.7
02/09 08:10 13.6 72 8.47 8.7 7 15 1016.7 0 19.3 25.9 39.5 103.7 97.2 334.3
02/09 08:00 13.1 75 8.56 8.8 7 17 1016.5 0 19.5 26.2 40.1 105.3 99.0 340.6
02/09 07:50 12.7 76 8.46 8.6 6 15 1016.5 0 19.3 26.1 39.9 104.7 98.2 337.6
02/09 07:40 12.3 78 8.47 8.6 7 13 1016.6 0 19.4 26.2 40.2 105.4 98.9 339.8
02/09 07:30 11.9 80 8.47 8.6 6 9 1016.6 0 19.4 26.4 40.4 105.9 99.4 341.6
02/09 07:20 11.6 83 8.63 8.8 4 9 1016.6 0 19.8 26.7 41.2 108.1 101.9 350.5
02/09 07:10 11.2 83 8.41 8.4 6 9 1016.4 0 19.3 26.5 40.5 106.2 99.4 341.7
02/09 07:00 10.9 85 8.46 8.5 6 11 1016.5 0 19.4 26.6 40.9 107.2 100.5 345.5
02/09 06:50 10.5 86 8.34 8.3 6 9 1016.5 0 19.2 26.6 40.6 106.4 99.4 341.5
02/09 06:40 10.2 88 8.38 8.3 6 9 1016.3 0 19.3 26.7 40.9 107.2 100.3 344.7
02/09 06:30 10.1 87 8.23 8 4 9 1016.4 0 19.0 26.5 40.3 105.7 98.4 337.9
02/09 06:20 10 85 7.99 7.6 2 6 1016.4 0 18.5 26.1 39.4 103.2 95.2 326.8
02/09 06:10 10.1 83 7.85 7.3 2 7 1016 0 18.2 25.8 38.7 101.5 93.2 319.7
02/09 06:00 10.5 83 8.05 7.7 4 11 1015.7 0 18.6 26.0 39.3 103.1 95.4 327.4
02/09 05:50 10.8 82 8.11 7.9 9 20 1015.4 0 18.7 26.0 39.4 103.3 95.8 328.9
02/09 05:40 11.1 82 8.26 8.1 13 22 1015.2 0 19.0 26.2 39.9 104.6 97.4 334.7
02/09 05:30 10.6 84 8.2 8 9 20 1015.2 0 18.9 26.3 39.9 104.6 97.2 334.0
02/09 05:20 10.6 84 8.2 8 7 20 1015.3 0 18.9 26.3 39.9 104.6 97.3 334.0
02/09 05:10 10.7 83 8.15 7.9 6 13 1015.3 0 18.8 26.1 39.6 103.9 96.4 331.2
02/09 05:00 10.9 83 8.26 8.1 7 13 1015.6 0 19.0 26.3 40.0 104.9 97.7 335.7
02/09 04:50 11.5 82 8.47 8.5 7 17 1015.8 0 19.4 26.5 40.5 106.4 99.8 343.1
02/09 04:40 11.5 85 8.78 9.1 7 15 1015.8 0 20.1 27.0 41.8 109.8 104.1 357.9
02/09 04:30 11.2 86 8.72 8.9 6 15 1015.9 0 20.0 27.0 41.8 109.6 103.6 356.5
02/09 04:20 11.3 83 8.47 8.5 4 9 1016 0 19.4 26.5 40.7 106.7 100.1 344.0
02/09 04:10 11.4 81 8.32 8.3 6 13 1016.3 0 19.1 26.3 40.0 104.9 97.9 336.6
02/09 04:00 11.8 79 8.32 8.3 6 11 1015.8 0 19.1 26.1 39.8 104.3 97.4 334.7
02/09 03:50 12.2 76 8.2 8.1 6 13 1016 0 18.8 25.8 39.1 102.5 95.3 327.4
02/09 03:40 12.3 76 8.25 8.2 6 11 1016.5 0 18.9 25.9 39.3 103.0 95.9 329.5
02/09 03:30 12.2 76 8.2 8.1 6 9 1016.7 0 18.8 25.8 39.1 102.6 95.4 327.6
02/09 03:20 12.1 77 8.26 8.2 4 7 1016.6 0 18.9 26.0 39.4 103.4 96.3 330.8
02/09 03:10 12.2 77 8.31 8.3 7 13 1016.6 0 19.0 26.0 39.6 103.8 96.8 332.8

Last Refresh: 02-Sep-2026 19:16:13

Bureau of Meteorology